createdAt,value
2023-02-01T00:00:36.395Z,89.88
2023-02-01T00:03:03.028Z,89.38
2023-02-01T00:05:29.647Z,89.35
2023-02-01T00:07:58.761Z,89.75
2023-02-01T00:10:25.469Z,89.20
2023-02-01T00:12:52.037Z,89.49
2023-02-01T00:15:21.760Z,89.29
2023-02-01T00:17:48.423Z,89.15
2023-02-01T00:20:15.019Z,88.33
2023-02-01T00:22:41.597Z,88.62
2023-02-01T00:25:08.673Z,88.02
2023-02-01T00:27:35.277Z,88.23
2023-02-01T00:30:01.911Z,88.19
2023-02-01T00:32:28.494Z,88.17
2023-02-01T00:34:55.085Z,88.12
2023-02-01T00:37:22.580Z,88.02
2023-02-01T00:39:52.159Z,87.69
2023-02-01T00:42:18.773Z,88.20
2023-02-01T00:44:47.958Z,87.59
2023-02-01T00:47:16.895Z,87.50
2023-02-01T00:49:45.990Z,87.69
2023-02-01T00:52:12.520Z,87.41
2023-02-01T00:54:39.129Z,87.67
2023-02-01T00:57:05.688Z,87.71
2023-02-01T00:59:32.235Z,87.88
2023-02-01T01:02:03.401Z,87.46
2023-02-01T01:04:32.954Z,87.64
2023-02-01T01:06:59.524Z,87.72
2023-02-01T01:09:26.062Z,87.49
2023-02-01T01:11:53.748Z,87.78
2023-02-01T01:14:20.531Z,87.89
2023-02-01T01:16:47.141Z,87.85
2023-02-01T01:19:16.069Z,87.71
2023-02-01T01:21:45.010Z,87.61
2023-02-01T01:24:11.571Z,87.51
2023-02-01T01:26:38.206Z,87.90
2023-02-01T01:29:09.279Z,87.51
2023-02-01T01:31:35.900Z,87.52
2023-02-01T01:34:04.875Z,87.88
2023-02-01T01:36:31.464Z,87.99
2023-02-01T01:38:59.319Z,87.73
2023-02-01T01:41:30.678Z,87.53
2023-02-01T01:44:08.839Z,88.09
2023-02-01T01:46:41.618Z,87.96
2023-02-01T01:49:08.431Z,87.97
2023-02-01T01:51:41.598Z,87.78
2023-02-01T01:54:16.403Z,87.67
2023-02-01T01:56:43.245Z,88.04
2023-02-01T01:59:10.641Z,87.58
2023-02-01T02:01:37.348Z,87.50
2023-02-01T02:04:05.355Z,87.73
2023-02-01T02:06:45.065Z,87.70
2023-02-01T02:09:12.345Z,87.92
2023-02-01T02:11:38.960Z,87.65
2023-02-01T02:14:08.486Z,87.23
2023-02-01T02:17:01.226Z,87.49
2023-02-01T02:19:58.477Z,87.59
2023-02-01T02:23:02.417Z,87.24
2023-02-01T02:25:39.562Z,87.18
2023-02-01T02:28:24.794Z,87.30
2023-02-01T02:31:36.571Z,87.11
2023-02-01T02:34:03.124Z,87.19
2023-02-01T02:36:35.607Z,87.04
2023-02-01T02:39:14.256Z,87.11
2023-02-01T02:42:31.170Z,87.26
2023-02-01T02:45:32.751Z,87.59
2023-02-01T02:48:08.768Z,87.44
2023-02-01T02:51:03.655Z,86.75
2023-02-01T02:54:06.968Z,87.10
2023-02-01T02:56:54.707Z,86.61
2023-02-01T02:59:44.115Z,86.75
2023-02-01T03:02:30.205Z,86.44
2023-02-01T03:04:57.491Z,86.52
2023-02-01T03:07:59.062Z,86.83
2023-02-01T03:10:42.769Z,86.60
2023-02-01T03:13:16.638Z,86.20
2023-02-01T03:16:04.927Z,86.00
2023-02-01T03:19:09.288Z,85.84
2023-02-01T03:21:44.624Z,85.45
2023-02-01T03:24:22.778Z,85.80
2023-02-01T03:26:56.937Z,86.39
2023-02-01T03:29:30.641Z,86.03
2023-02-01T03:31:57.273Z,85.89
2023-02-01T03:34:23.993Z,86.25
2023-02-01T03:36:57.286Z,86.46
2023-02-01T03:39:37.954Z,86.29
2023-02-01T03:42:11.537Z,86.85
2023-02-01T03:44:55.085Z,86.34
2023-02-01T03:47:24.913Z,86.99
2023-02-01T03:49:56.602Z,87.05
2023-02-01T03:52:47.814Z,87.26
2023-02-01T03:55:17.436Z,87.19
2023-02-01T03:57:56.562Z,87.33
2023-02-01T04:00:26.190Z,87.55
2023-02-01T04:02:55.640Z,87.25
2023-02-01T04:05:22.674Z,87.47
2023-02-01T04:07:49.517Z,87.58
2023-02-01T04:10:19.859Z,87.63
2023-02-01T04:12:49.630Z,87.14
2023-02-01T04:15:16.245Z,87.60
2023-02-01T04:17:42.843Z,87.61
2023-02-01T04:20:10.343Z,87.92
2023-02-01T04:22:36.959Z,87.71
2023-02-01T04:25:04.025Z,87.61
2023-02-01T04:27:32.895Z,87.67
2023-02-01T04:29:59.441Z,87.58
2023-02-01T04:32:26.001Z,87.56
2023-02-01T04:34:54.814Z,87.98
2023-02-01T04:37:21.478Z,87.46
2023-02-01T04:39:48.009Z,87.78
2023-02-01T04:42:14.604Z,87.70
2023-02-01T04:44:42.947Z,87.31
2023-02-01T04:47:10.601Z,87.31
2023-02-01T04:49:39.413Z,87.35
2023-02-01T04:52:05.988Z,87.41
2023-02-01T04:54:32.603Z,87.02
2023-02-01T04:56:59.189Z,87.10
2023-02-01T04:59:26.054Z,86.60
2023-02-01T05:01:52.737Z,87.19
2023-02-01T05:04:19.699Z,86.69
2023-02-01T05:06:46.433Z,86.98
2023-02-01T05:09:13.176Z,86.63
2023-02-01T05:11:58.274Z,86.88
2023-02-01T05:14:24.872Z,86.79
2023-02-01T05:16:51.427Z,86.61
2023-02-01T05:19:20.506Z,86.65
2023-02-01T05:21:51.912Z,86.26
2023-02-01T05:24:21.542Z,86.32
2023-02-01T05:26:49.362Z,86.34
2023-02-01T05:29:17.201Z,86.25
2023-02-01T05:31:46.198Z,86.30
2023-02-01T05:34:12.999Z,86.52
2023-02-01T05:36:39.843Z,86.92
2023-02-01T05:39:06.486Z,86.72
2023-02-01T05:41:33.119Z,86.70
2023-02-01T05:43:59.677Z,86.85
2023-02-01T05:46:26.486Z,86.49
2023-02-01T05:48:55.348Z,86.61
2023-02-01T05:51:24.408Z,86.58
2023-02-01T05:53:50.981Z,86.66
2023-02-01T05:56:17.623Z,86.32
2023-02-01T05:58:44.319Z,86.05
2023-02-01T06:01:11.140Z,85.98
2023-02-01T06:03:38.874Z,86.24
2023-02-01T06:06:08.772Z,86.21
2023-02-01T06:08:35.603Z,85.85
2023-02-01T06:11:05.297Z,85.55
2023-02-01T06:13:34.507Z,85.37
2023-02-01T06:16:03.427Z,85.51
2023-02-01T06:18:31.603Z,85.40
2023-02-01T06:21:01.683Z,85.44
2023-02-01T06:23:29.305Z,85.15
2023-02-01T06:26:01.746Z,85.22
2023-02-01T06:28:29.539Z,84.87
2023-02-01T06:30:56.744Z,85.23
2023-02-01T06:33:23.413Z,85.07
2023-02-01T06:35:50.124Z,84.83
2023-02-01T06:38:16.755Z,84.84
2023-02-01T06:40:43.373Z,84.62
2023-02-01T06:43:09.992Z,84.66
2023-02-01T06:45:36.573Z,84.57
2023-02-01T06:48:05.575Z,84.68
2023-02-01T06:50:32.254Z,84.69
2023-02-01T06:52:58.785Z,84.84
2023-02-01T06:55:27.717Z,84.79
2023-02-01T06:57:57.320Z,84.85
2023-02-01T07:00:24.730Z,84.97
2023-02-01T07:02:51.859Z,85.27
2023-02-01T07:05:18.488Z,84.97
2023-02-01T07:07:47.682Z,85.21
2023-02-01T07:10:14.295Z,85.42
2023-02-01T07:12:45.768Z,85.43
2023-02-01T07:18:23.929Z,85.33
2023-02-01T07:20:55.273Z,85.15
2023-02-01T07:23:22.715Z,85.46
2023-02-01T07:25:54.196Z,85.35
2023-02-01T07:28:24.726Z,85.51
2023-02-01T07:30:55.581Z,85.53
2023-02-01T07:33:29.620Z,85.56
2023-02-01T07:36:02.491Z,85.60
2023-02-01T07:38:36.333Z,85.61
2023-02-01T07:41:10.852Z,85.78
2023-02-01T07:43:39.053Z,85.47
2023-02-01T07:46:14.369Z,85.41
2023-02-01T07:48:42.276Z,85.39
2023-02-01T07:51:13.660Z,85.71
2023-02-01T07:53:43.676Z,85.28
2023-02-01T07:56:19.929Z,85.22
2023-02-01T07:58:59.087Z,85.19
2023-02-01T08:01:29.161Z,85.04
2023-02-01T08:04:03.172Z,85.37
2023-02-01T08:06:36.322Z,85.11
2023-02-01T08:09:04.871Z,84.78
2023-02-01T08:11:34.648Z,85.23
2023-02-01T08:14:03.313Z,84.80
2023-02-01T08:16:30.476Z,84.73
2023-02-01T08:18:57.988Z,84.87
2023-02-01T08:21:37.961Z,84.92
2023-02-01T08:24:06.866Z,84.80
2023-02-01T08:26:33.628Z,84.69
2023-02-01T08:29:05.729Z,84.84
2023-02-01T08:31:32.499Z,84.68
2023-02-01T08:34:03.107Z,84.76
2023-02-01T08:36:32.059Z,84.74
2023-02-01T08:38:58.930Z,84.52
2023-02-01T08:41:28.268Z,84.68
2023-02-01T08:43:55.409Z,84.52
2023-02-01T08:46:22.931Z,83.99
2023-02-01T08:48:50.347Z,84.01
2023-02-01T08:51:18.955Z,83.91
2023-02-01T08:53:45.981Z,83.84
2023-02-01T08:56:15.358Z,83.55
2023-02-01T08:58:42.378Z,83.54
2023-02-01T09:01:11.878Z,83.33
2023-02-01T09:03:38.523Z,83.56
2023-02-01T09:06:07.685Z,83.65
2023-02-01T09:08:35.633Z,83.31
2023-02-01T09:11:04.688Z,83.28
2023-02-01T09:13:31.554Z,83.59
2023-02-01T09:15:58.285Z,83.20
2023-02-01T09:18:24.954Z,82.95
2023-02-01T09:20:54.097Z,82.79
2023-02-01T09:23:21.489Z,82.91
2023-02-01T09:25:51.377Z,82.36
2023-02-01T09:28:18.819Z,82.07
2023-02-01T09:30:45.684Z,81.70
2023-02-01T09:33:12.393Z,81.25
2023-02-01T09:35:39.224Z,80.92
2023-02-01T09:38:06.326Z,80.97
2023-02-01T09:40:38.220Z,81.30
2023-02-01T09:43:07.545Z,80.48
2023-02-01T09:45:52.659Z,79.72
2023-02-01T09:48:23.896Z,79.59
2023-02-01T09:50:55.935Z,79.97
2023-02-01T09:53:26.276Z,79.56
2023-02-01T09:56:03.617Z,79.61
2023-02-01T09:58:33.918Z,78.91
2023-02-01T10:01:04.961Z,78.12
2023-02-01T10:03:35.267Z,78.23
2023-02-01T10:06:32.425Z,78.04
2023-02-01T10:09:32.093Z,78.43
2023-02-01T10:12:01.823Z,78.97
2023-02-01T10:14:39.039Z,78.99
2023-02-01T10:17:36.633Z,79.17
2023-02-01T10:20:14.352Z,79.24
2023-02-01T10:23:22.705Z,79.02
2023-02-01T10:25:53.147Z,79.00
2023-02-01T10:28:22.559Z,78.92
2023-02-01T10:30:50.087Z,79.35
2023-02-01T10:33:28.556Z,79.58
2023-02-01T10:36:04.236Z,79.36
2023-02-01T10:38:34.029Z,79.05
2023-02-01T10:41:04.882Z,79.42
2023-02-01T10:43:32.093Z,79.26
2023-02-01T10:45:58.776Z,79.21
2023-02-01T10:48:25.542Z,79.50
2023-02-01T10:51:00.884Z,79.12
2023-02-01T10:53:30.427Z,79.42
2023-02-01T10:55:57.216Z,78.92
2023-02-01T10:58:33.616Z,78.71
2023-02-01T11:01:11.342Z,78.52
2023-02-01T11:03:42.256Z,78.53
2023-02-01T11:06:27.468Z,78.39
2023-02-01T11:08:58.883Z,78.52
2023-02-01T11:11:26.734Z,78.39
2023-02-01T11:14:14.999Z,78.70
2023-02-01T11:16:41.798Z,78.68
2023-02-01T11:19:08.362Z,78.44
2023-02-01T11:21:35.494Z,78.86
2023-02-01T11:24:18.014Z,78.52
2023-02-01T11:26:47.526Z,78.70
2023-02-01T11:29:23.120Z,78.74
2023-02-01T11:31:51.146Z,78.75
2023-02-01T11:34:22.085Z,78.40
2023-02-01T11:36:50.798Z,78.59
2023-02-01T11:39:35.836Z,78.42
2023-02-01T11:42:18.033Z,78.04
2023-02-01T11:44:48.321Z,77.88
2023-02-01T11:47:33.328Z,77.67
2023-02-01T11:50:06.090Z,77.92
2023-02-01T11:53:07.701Z,77.18
2023-02-01T11:55:40.317Z,76.62
2023-02-01T11:58:15.969Z,76.93
2023-02-01T12:01:11.935Z,76.83
2023-02-01T12:03:53.657Z,77.40
2023-02-01T12:06:38.971Z,77.52
2023-02-01T12:09:14.669Z,77.01
2023-02-01T12:12:05.059Z,77.12
2023-02-01T12:14:34.587Z,77.29
2023-02-01T12:17:25.654Z,77.32
2023-02-01T12:20:11.918Z,77.12
2023-02-01T12:22:43.485Z,77.42
2023-02-01T12:25:55.307Z,77.59
2023-02-01T12:28:39.834Z,77.21
2023-02-01T12:31:11.071Z,77.22
2023-02-01T12:33:48.069Z,77.14
2023-02-01T12:36:17.633Z,77.07
2023-02-01T12:39:11.616Z,77.00
2023-02-01T12:41:56.503Z,76.59
2023-02-01T12:44:33.813Z,76.52
2023-02-01T12:47:18.489Z,77.05
2023-02-01T12:50:02.691Z,76.63
2023-02-01T12:52:37.587Z,77.12
2023-02-01T12:55:33.874Z,76.79
2023-02-01T12:58:14.862Z,76.79
2023-02-01T13:00:47.241Z,76.12
2023-02-01T13:03:40.329Z,76.48
2023-02-01T13:06:38.562Z,76.24
2023-02-01T13:09:24.354Z,75.84
2023-02-01T13:11:54.234Z,75.69
2023-02-01T13:14:33.006Z,75.60
2023-02-01T13:17:11.905Z,75.26
2023-02-01T13:19:53.640Z,75.32
2023-02-01T13:22:34.120Z,75.17
2023-02-01T13:25:12.924Z,75.37
2023-02-01T13:27:40.047Z,75.05
2023-02-01T13:30:27.029Z,74.98
2023-02-01T13:33:54.593Z,74.95
2023-02-01T13:36:22.973Z,74.41
2023-02-01T13:39:14.177Z,74.76
2023-02-01T13:41:54.930Z,74.38
2023-02-01T13:45:00.002Z,74.47
2023-02-01T13:47:28.688Z,75.01
2023-02-01T13:49:59.306Z,74.74
2023-02-01T13:52:35.544Z,74.29
2023-02-01T13:55:21.999Z,74.67
2023-02-01T13:57:51.477Z,74.48
2023-02-01T14:00:37.066Z,74.66
2023-02-01T14:03:08.898Z,74.31
2023-02-01T14:05:35.758Z,74.95
2023-02-01T14:08:08.770Z,75.37
2023-02-01T14:10:57.981Z,74.94
2023-02-01T14:13:36.627Z,75.29
2023-02-01T14:16:03.263Z,75.30
2023-02-01T14:18:36.033Z,75.04
2023-02-01T14:21:23.838Z,75.26
2023-02-01T14:23:53.747Z,75.17
2023-02-01T14:26:24.445Z,74.94
2023-02-01T14:28:57.001Z,75.49
2023-02-01T14:32:17.693Z,75.18
2023-02-01T14:34:47.100Z,74.96
2023-02-01T14:37:13.627Z,74.85
2023-02-01T14:39:50.542Z,75.17
2023-02-01T14:42:47.504Z,74.73
2023-02-01T14:45:24.028Z,75.30
2023-02-01T14:48:06.436Z,74.90
2023-02-01T14:50:41.350Z,75.28
2023-02-01T14:53:13.507Z,75.33
2023-02-01T14:55:50.289Z,75.50
2023-02-01T14:58:35.618Z,75.68
2023-02-01T15:01:06.099Z,75.11
2023-02-01T15:03:35.760Z,75.99
2023-02-01T15:06:04.524Z,75.49
2023-02-01T15:08:39.923Z,75.89
2023-02-01T15:11:16.825Z,75.96
2023-02-01T15:13:54.983Z,75.84
2023-02-01T15:16:23.873Z,75.99
2023-02-01T15:19:09.752Z,75.86
2023-02-01T15:21:52.793Z,75.97
2023-02-01T15:24:26.677Z,76.17
2023-02-01T15:26:55.429Z,76.56
2023-02-01T15:29:28.603Z,76.26
2023-02-01T15:31:58.017Z,76.75
2023-02-01T15:34:24.592Z,76.29
2023-02-01T15:37:02.407Z,76.33
2023-02-01T15:39:32.023Z,76.65
2023-02-01T15:42:03.290Z,76.64
2023-02-01T15:44:41.490Z,76.61
2023-02-01T15:47:21.532Z,77.07
2023-02-01T15:49:53.036Z,76.59
2023-02-01T15:52:42.539Z,76.76
2023-02-01T15:55:21.144Z,76.95
2023-02-01T15:57:50.517Z,77.00
2023-02-01T16:00:28.719Z,77.06
2023-02-01T16:02:58.906Z,76.80
2023-02-01T16:05:45.730Z,76.81
2023-02-01T16:08:23.315Z,76.74
2023-02-01T16:10:55.605Z,76.85
2023-02-01T16:13:22.653Z,77.17
2023-02-01T16:15:50.473Z,77.03
2023-02-01T16:18:18.916Z,77.35
2023-02-01T16:20:46.438Z,77.46
2023-02-01T16:23:13.714Z,77.38
2023-02-01T16:25:41.214Z,77.74
2023-02-01T16:28:09.184Z,77.36
2023-02-01T16:30:36.612Z,77.06
2023-02-01T16:33:05.918Z,77.46
2023-02-01T16:35:38.298Z,77.06
2023-02-01T16:38:13.199Z,77.24
2023-02-01T16:40:40.789Z,77.27
2023-02-01T16:43:18.583Z,77.31
2023-02-01T16:45:52.656Z,77.24
2023-02-01T16:48:31.118Z,77.63
2023-02-01T16:51:09.898Z,77.50
2023-02-01T16:53:48.315Z,77.40
2023-02-01T16:56:21.797Z,77.50
2023-02-01T16:58:48.511Z,77.39
2023-02-01T17:01:18.203Z,77.73
2023-02-01T17:03:46.575Z,77.29
2023-02-01T17:06:18.373Z,77.64
2023-02-01T17:08:52.333Z,77.44
2023-02-01T17:11:19.513Z,77.94
2023-02-01T17:13:46.474Z,77.87
2023-02-01T17:16:19.264Z,77.71
2023-02-01T17:18:58.081Z,77.97
2023-02-01T17:21:31.264Z,78.03
2023-02-01T17:24:00.046Z,77.97
2023-02-01T17:26:26.884Z,78.01
2023-02-01T17:28:53.501Z,78.18
2023-02-01T17:31:22.699Z,77.85
2023-02-01T17:33:53.336Z,77.85
2023-02-01T17:36:22.942Z,77.86
2023-02-01T17:39:03.683Z,77.84
2023-02-01T17:41:34.961Z,77.82
2023-02-01T17:44:03.011Z,77.97
2023-02-01T17:46:31.960Z,77.70
2023-02-01T17:49:01.527Z,78.18
2023-02-01T17:51:29.301Z,78.00
2023-02-01T17:53:56.129Z,77.90
2023-02-01T17:56:25.027Z,78.04
2023-02-01T17:58:51.967Z,77.82
2023-02-01T18:01:25.438Z,78.05
2023-02-01T18:03:52.138Z,78.13
2023-02-01T18:06:22.453Z,78.23
2023-02-01T18:08:51.697Z,78.38
2023-02-01T18:11:25.056Z,78.54
2023-02-01T18:13:53.771Z,78.35
2023-02-01T18:16:24.479Z,78.30
2023-02-01T18:18:51.940Z,78.29
2023-02-01T18:21:21.426Z,78.34
2023-02-01T18:23:48.808Z,78.34
2023-02-01T18:26:17.175Z,78.56
2023-02-01T18:28:46.568Z,78.63
2023-02-01T18:31:29.946Z,78.41
2023-02-01T18:33:58.744Z,78.56
2023-02-01T18:36:26.485Z,78.25
2023-02-01T18:38:57.710Z,78.81
2023-02-01T18:41:25.450Z,78.24
2023-02-01T18:43:55.531Z,78.73
2023-02-01T18:46:22.999Z,78.37
2023-02-01T18:48:49.698Z,78.53
2023-02-01T18:51:20.434Z,78.64
2023-02-01T18:53:48.231Z,78.72
2023-02-01T18:56:18.578Z,78.59
2023-02-01T18:58:46.084Z,78.28
2023-02-01T19:01:23.542Z,78.66
2023-02-01T19:03:54.296Z,78.79
2023-02-01T19:06:29.430Z,78.63
2023-02-01T19:08:56.280Z,78.56
2023-02-01T19:11:23.075Z,78.56
2023-02-01T19:13:51.324Z,78.45
2023-02-01T19:16:22.762Z,78.60
2023-02-01T19:18:53.259Z,78.48
2023-02-01T19:21:19.926Z,79.01
2023-02-01T19:23:46.637Z,78.82
2023-02-01T19:26:15.770Z,79.06
2023-02-01T19:28:46.885Z,79.18
2023-02-01T19:31:14.084Z,78.46
2023-02-01T19:33:40.808Z,78.56
2023-02-01T19:36:09.951Z,78.85
2023-02-01T19:38:42.853Z,79.11
2023-02-01T19:41:09.429Z,78.96
2023-02-01T19:43:39.743Z,79.16
2023-02-01T19:46:06.445Z,78.98
2023-02-01T19:48:34.318Z,79.10
2023-02-01T19:51:01.201Z,79.33
2023-02-01T19:53:29.461Z,78.78
2023-02-01T19:55:57.872Z,79.02
2023-02-01T19:58:25.760Z,79.15
2023-02-01T20:00:56.031Z,79.30
2023-02-01T20:03:23.791Z,79.13
2023-02-01T20:05:52.035Z,79.49
2023-02-01T20:08:18.912Z,79.36
2023-02-01T20:10:45.566Z,79.23
2023-02-01T20:13:12.629Z,79.18
2023-02-01T20:15:42.098Z,79.04
2023-02-01T20:18:09.249Z,79.25
2023-02-01T20:20:35.819Z,79.09
2023-02-01T20:23:02.890Z,79.87
2023-02-01T20:25:32.701Z,79.44
2023-02-01T20:27:59.343Z,79.58
2023-02-01T20:30:26.091Z,79.23
2023-02-01T20:32:52.696Z,79.51
2023-02-01T20:35:19.503Z,79.38
2023-02-01T20:37:46.122Z,79.69
2023-02-01T20:40:13.142Z,79.67
2023-02-01T20:42:41.233Z,79.56
2023-02-01T20:45:10.527Z,79.46
2023-02-01T20:47:37.144Z,79.17
2023-02-01T20:50:03.913Z,79.45
2023-02-01T20:52:30.500Z,79.36
2023-02-01T20:54:57.084Z,79.35
2023-02-01T20:57:26.406Z,79.33
2023-02-01T20:59:53.035Z,79.02
2023-02-01T21:02:21.966Z,79.23
2023-02-01T21:04:48.657Z,79.17
2023-02-01T21:07:15.282Z,79.26
2023-02-01T21:09:43.318Z,79.23
2023-02-01T21:12:10.487Z,79.17
2023-02-01T21:14:37.140Z,79.18
2023-02-01T21:17:03.742Z,79.16
2023-02-01T21:19:42.722Z,79.20
2023-02-01T21:22:13.354Z,79.18
2023-02-01T21:24:41.161Z,79.16
2023-02-01T21:27:11.403Z,79.43
2023-02-01T21:29:43.099Z,79.35
2023-02-01T21:32:09.975Z,79.31
2023-02-01T21:34:36.577Z,79.76
2023-02-01T21:37:03.492Z,79.60
2023-02-01T21:39:30.303Z,80.22
2023-02-01T21:42:17.530Z,80.21
2023-02-01T21:44:49.541Z,79.84
2023-02-01T21:47:21.339Z,79.77
2023-02-01T21:49:52.679Z,79.81
2023-02-01T21:52:22.132Z,80.12
2023-02-01T21:54:49.140Z,79.81
2023-02-01T21:57:15.678Z,80.13
2023-02-01T21:59:43.662Z,80.08
2023-02-01T22:02:14.083Z,79.73
2023-02-01T22:04:40.814Z,80.17
2023-02-01T22:07:07.780Z,80.30
2023-02-01T22:09:34.357Z,79.93
2023-02-01T22:12:00.944Z,79.87
2023-02-01T22:14:27.495Z,79.85
2023-02-01T22:16:54.204Z,80.39
2023-02-01T22:19:21.100Z,80.51
2023-02-01T22:21:50.905Z,80.28
2023-02-01T22:24:21.041Z,80.59
2023-02-01T22:26:50.188Z,80.99
2023-02-01T22:29:19.272Z,80.98
2023-02-01T22:31:46.039Z,80.74
2023-02-01T22:34:12.933Z,80.81
2023-02-01T22:36:41.873Z,80.82
2023-02-01T22:39:11.377Z,80.80
2023-02-01T22:41:40.485Z,81.34
2023-02-01T22:44:07.067Z,81.35
2023-02-01T22:46:33.818Z,81.45
2023-02-01T22:49:04.306Z,81.01
2023-02-01T22:51:32.605Z,81.10
2023-02-01T22:53:59.998Z,80.73
2023-02-01T22:56:30.275Z,80.69
2023-02-01T22:58:59.484Z,81.08
2023-02-01T23:01:26.712Z,80.65
2023-02-01T23:04:01.592Z,81.07
2023-02-01T23:06:29.246Z,80.57
2023-02-01T23:08:58.120Z,80.77
2023-02-01T23:11:25.744Z,80.73
2023-02-01T23:13:53.304Z,80.67
2023-02-01T23:16:20.019Z,81.05
2023-02-01T23:18:46.794Z,81.03
2023-02-01T23:21:18.099Z,81.16
2023-02-01T23:23:49.911Z,80.81
2023-02-01T23:26:17.247Z,81.03
2023-02-01T23:28:44.055Z,80.83
2023-02-01T23:31:12.904Z,81.10
2023-02-01T23:33:40.122Z,81.63
2023-02-01T23:36:10.142Z,81.30
2023-02-01T23:38:39.213Z,81.21
2023-02-01T23:41:10.386Z,81.02
2023-02-01T23:43:55.746Z,81.56
2023-02-01T23:46:22.534Z,81.03
2023-02-01T23:48:51.221Z,81.57
2023-02-01T23:51:18.064Z,81.37
2023-02-01T23:53:44.868Z,81.86
2023-02-01T23:56:27.905Z,81.87
2023-02-01T23:58:56.672Z,81.96
